TimeCDT,TemperatureF,Dew PointF,Humidity,Sea Level PressureIn,VisibilityMPH,Wind Direction,Wind SpeedMPH,Gust SpeedMPH,PrecipitationIn,Events,Conditions,WindDirDegrees,DateUTC
12:15 AM,23.0,15.6,73,30.00,10.0,WNW,11.5,-,N/A,,Clear,290,2013-03-19 05:15:00
12:35 AM,22.8,15.8,74,30.01,10.0,West,9.2,-,N/A,,Clear,280,2013-03-19 05:35:00
12:55 AM,22.1,15.6,76,30.00,10.0,West,8.1,-,N/A,,Clear,280,2013-03-19 05:55:00
1:15 AM,22.6,15.4,74,30.01,10.0,West,9.2,-,N/A,,Clear,280,2013-03-19 06:15:00
1:35 AM,22.6,14.0,69,30.01,10.0,WNW,15.0,-,N/A,,Clear,290,2013-03-19 06:35:00
1:55 AM,21.9,14.7,74,30.01,10.0,West,11.5,-,N/A,,Clear,270,2013-03-19 06:55:00
2:15 AM,22.1,13.1,68,30.02,10.0,WNW,10.4,-,N/A,,Clear,290,2013-03-19 07:15:00
2:35 AM,22.1,11.3,63,30.03,10.0,WNW,16.1,20.7,N/A,,Clear,300,2013-03-19 07:35:00
2:55 AM,21.6,11.5,65,30.04,10.0,WNW,11.5,-,N/A,,Clear,290,2013-03-19 07:55:00
3:15 AM,21.0,12.4,69,30.04,10.0,WNW,9.2,-,N/A,,Clear,290,2013-03-19 08:15:00
3:35 AM,20.7,12.2,70,30.04,10.0,WNW,11.5,-,N/A,,Clear,300,2013-03-19 08:35:00
3:55 AM,20.7,12.2,70,30.04,10.0,WNW,12.7,17.3,N/A,,Clear,300,2013-03-19 08:55:00
4:15 AM,20.5,11.3,68,30.04,10.0,WNW,13.8,-,N/A,,Clear,300,2013-03-19 09:15:00
4:35 AM,20.3,10.8,67,30.04,10.0,WNW,16.1,20.7,N/A,,Clear,300,2013-03-19 09:35:00
4:55 AM,19.9,10.4,67,30.04,10.0,WNW,11.5,-,N/A,,Clear,290,2013-03-19 09:55:00
5:15 AM,19.6,10.8,69,30.05,10.0,WNW,10.4,-,N/A,,Clear,290,2013-03-19 10:15:00
5:35 AM,19.0,11.3,72,30.06,10.0,WNW,8.1,-,N/A,,Clear,290,2013-03-19 10:35:00
5:55 AM,18.1,11.3,75,30.06,10.0,WNW,6.9,-,N/A,,Clear,290,2013-03-19 10:55:00
6:15 AM,17.6,11.3,76,30.06,10.0,WNW,6.9,-,N/A,,Clear,300,2013-03-19 11:15:00
6:35 AM,18.5,10.8,72,30.07,10.0,NW,10.4,-,N/A,,Clear,310,2013-03-19 11:35:00
6:55 AM,18.0,10.2,72,30.08,10.0,WNW,9.2,-,N/A,,Clear,290,2013-03-19 11:55:00
7:15 AM,17.4,10.0,73,30.09,10.0,WNW,6.9,-,N/A,,Clear,290,2013-03-19 12:15:00
7:35 AM,17.8,9.7,71,30.10,10.0,WNW,9.2,-,N/A,,Clear,290,2013-03-19 12:35:00
7:55 AM,18.5,9.5,68,30.10,10.0,WNW,8.1,-,N/A,,Clear,290,2013-03-19 12:55:00
8:15 AM,19.4,9.0,64,30.12,10.0,WNW,10.4,-,N/A,,Clear,290,2013-03-19 13:15:00
8:35 AM,20.3,8.8,61,30.13,10.0,WNW,10.4,-,N/A,,Clear,300,2013-03-19 13:35:00
8:55 AM,20.8,8.8,60,30.14,10.0,WNW,12.7,-,N/A,,Clear,300,2013-03-19 13:55:00
9:15 AM,22.3,9.1,57,30.15,10.0,WNW,13.8,-,N/A,,Clear,290,2013-03-19 14:15:00
9:35 AM,22.8,8.6,55,30.16,10.0,NW,12.7,-,N/A,,Clear,320,2013-03-19 14:35:00
9:55 AM,23.7,9.3,54,30.16,10.0,WNW,9.2,-,N/A,,Clear,300,2013-03-19 14:55:00
10:15 AM,24.6,9.9,54,30.16,10.0,NW,8.1,-,N/A,,Clear,320,2013-03-19 15:15:00
10:35 AM,25.2,9.1,51,30.16,10.0,NW,9.2,-,N/A,,Clear,310,2013-03-19 15:35:00
10:55 AM,26.2,10.2,51,30.18,10.0,West,10.4,-,N/A,,Clear,270,2013-03-19 15:55:00
11:15 AM,27.0,9.9,49,30.19,10.0,WNW,8.1,-,N/A,,Clear,290,2013-03-19 16:15:00
11:35 AM,29.1,10.6,46,30.19,10.0,WNW,4.6,-,N/A,,Scattered Clouds,300,2013-03-19 16:35:00
11:55 AM,28.6,9.1,44,30.18,10.0,NW,6.9,-,N/A,,Scattered Clouds,310,2013-03-19 16:55:00
12:15 PM,29.3,10.4,45,30.18,10.0,West,8.1,-,N/A,,Mostly Cloudy,280,2013-03-19 17:15:00
12:35 PM,30.4,8.4,40,30.18,10.0,West,6.9,-,N/A,,Scattered Clouds,280,2013-03-19 17:35:00
12:55 PM,31.1,9.1,40,30.18,10.0,West,9.2,-,N/A,,Scattered Clouds,270,2013-03-19 17:55:00
1:15 PM,32.0,7.5,36,30.18,10.0,West,8.1,-,N/A,,Mostly Cloudy,270,2013-03-19 18:15:00
1:35 PM,33.4,9.5,37,30.18,10.0,West,6.9,-,N/A,,Mostly Cloudy,280,2013-03-19 18:35:00
1:55 PM,34.7,10.8,37,30.17,10.0,West,6.9,-,N/A,,Scattered Clouds,280,2013-03-19 18:55:00
2:15 PM,35.4,8.4,33,30.17,10.0,WNW,6.9,-,N/A,,Clear,290,2013-03-19 19:15:00
2:35 PM,36.7,12.2,37,30.18,10.0,SW,8.1,-,N/A,,Mostly Cloudy,230,2013-03-19 19:35:00
2:55 PM,37.0,9.9,33,30.17,10.0,West,10.4,-,N/A,,Mostly Cloudy,280,2013-03-19 19:55:00
3:15 PM,38.5,10.0,31,30.16,10.0,West,9.2,-,N/A,,Scattered Clouds,260,2013-03-19 20:15:00
3:35 PM,39.0,11.7,33,30.16,10.0,WSW,12.7,-,N/A,,Mostly Cloudy,250,2013-03-19 20:35:00
3:55 PM,39.4,12.6,33,30.16,10.0,West,9.2,17.3,N/A,,Overcast,260,2013-03-19 20:55:00
4:15 PM,39.0,12.6,34,30.16,10.0,West,6.9,-,N/A,,Overcast,270,2013-03-19 21:15:00
4:35 PM,39.6,12.2,33,30.15,10.0,West,8.1,-,N/A,,Scattered Clouds,260,2013-03-19 21:35:00
4:55 PM,40.8,12.0,31,30.15,10.0,WSW,10.4,-,N/A,,Clear,240,2013-03-19 21:55:00
5:15 PM,41.4,12.4,31,30.15,10.0,West,12.7,-,N/A,,Clear,260,2013-03-19 22:15:00
5:35 PM,41.4,12.9,31,30.14,10.0,West,11.5,17.3,N/A,,Clear,270,2013-03-19 22:35:00
5:55 PM,41.5,14.2,33,30.14,10.0,West,13.8,-,N/A,,Clear,260,2013-03-19 22:55:00
6:15 PM,41.2,13.8,33,30.14,10.0,West,11.5,18.4,N/A,,Clear,260,2013-03-19 23:15:00
6:35 PM,40.6,16.2,37,30.14,10.0,West,11.5,-,N/A,,Clear,260,2013-03-19 23:35:00
6:55 PM,39.6,16.5,39,30.14,10.0,West,9.2,-,N/A,,Clear,270,2013-03-19 23:55:00
7:15 PM,37.4,18.3,46,30.14,10.0,West,5.8,-,N/A,,Clear,260,2013-03-20 00:15:00
7:35 PM,36.5,17.4,46,30.14,10.0,WSW,4.6,-,N/A,,Clear,250,2013-03-20 00:35:00
7:55 PM,35.6,17.4,48,30.14,10.0,West,4.6,-,N/A,,Clear,260,2013-03-20 00:55:00
8:15 PM,34.9,19.2,53,30.15,10.0,West,5.8,-,N/A,,Clear,270,2013-03-20 01:15:00
8:35 PM,33.6,19.9,57,30.16,10.0,North,9.2,-,N/A,,Clear,350,2013-03-20 01:35:00
8:55 PM,32.0,20.5,63,30.17,10.0,North,9.2,-,N/A,,Clear,350,2013-03-20 01:55:00
9:15 PM,30.2,20.5,67,30.18,10.0,North,6.9,-,N/A,,Clear,350,2013-03-20 02:15:00
9:35 PM,28.8,20.1,70,30.19,10.0,NNW,6.9,-,N/A,,Clear,330,2013-03-20 02:35:00
9:55 PM,28.9,20.1,70,30.21,10.0,NNW,10.4,-,N/A,,Clear,330,2013-03-20 02:55:00
10:15 PM,28.9,20.5,71,30.21,10.0,NNW,10.4,-,N/A,,Clear,330,2013-03-20 03:15:00
10:35 PM,28.2,20.7,73,30.21,10.0,NNW,8.1,-,N/A,,Clear,330,2013-03-20 03:35:00
10:55 PM,27.1,20.7,77,30.21,10.0,NNW,8.1,-,N/A,,Clear,330,2013-03-20 03:55:00
11:15 PM,26.4,20.3,78,30.21,10.0,NW,5.8,-,N/A,,Clear,320,2013-03-20 04:15:00
11:35 PM,25.7,20.3,80,30.22,10.0,WNW,4.6,-,N/A,,Clear,300,2013-03-20 04:35:00
11:55 PM,24.6,19.9,82,30.22,10.0,WNW,5.8,-,N/A,,Clear,290,2013-03-20 04:55:00